sensor_id;sensor_type;location;lat;lon;timestamp;temperature;humidity
75451;DHT22;64029;48.244;9.188;2023-07-20T00:01:39;19.60;54.60
75451;DHT22;64029;48.244;9.188;2023-07-20T00:04:10;19.60;54.70
75451;DHT22;64029;48.244;9.188;2023-07-20T00:06:37;19.60;54.80
75451;DHT22;64029;48.244;9.188;2023-07-20T00:09:05;19.50;54.80
75451;DHT22;64029;48.244;9.188;2023-07-20T00:11:36;19.50;54.90
75451;DHT22;64029;48.244;9.188;2023-07-20T00:14:04;19.50;55.00
75451;DHT22;64029;48.244;9.188;2023-07-20T00:16:32;19.50;55.00
75451;DHT22;64029;48.244;9.188;2023-07-20T00:19:01;19.40;55.00
75451;DHT22;64029;48.244;9.188;2023-07-20T00:21:29;19.40;55.00
75451;DHT22;64029;48.244;9.188;2023-07-20T00:23:56;19.40;55.00
75451;DHT22;64029;48.244;9.188;2023-07-20T00:26:25;19.30;55.10
75451;DHT22;64029;48.244;9.188;2023-07-20T00:28:52;19.30;54.90
75451;DHT22;64029;48.244;9.188;2023-07-20T00:31:21;19.20;55.00
75451;DHT22;64029;48.244;9.188;2023-07-20T00:33:48;19.20;55.10
75451;DHT22;64029;48.244;9.188;2023-07-20T00:36:15;19.20;55.20
75451;DHT22;64029;48.244;9.188;2023-07-20T00:38:42;19.10;55.10
75451;DHT22;64029;48.244;9.188;2023-07-20T00:41:09;19.10;55.20
75451;DHT22;64029;48.244;9.188;2023-07-20T00:43:36;19.10;55.10
75451;DHT22;64029;48.244;9.188;2023-07-20T00:46:03;19.00;55.10
75451;DHT22;64029;48.244;9.188;2023-07-20T00:48:32;19.00;55.00
75451;DHT22;64029;48.244;9.188;2023-07-20T00:51:00;19.00;55.10
75451;DHT22;64029;48.244;9.188;2023-07-20T00:53:27;18.90;55.10
75451;DHT22;64029;48.244;9.188;2023-07-20T00:55:54;18.90;55.10
75451;DHT22;64029;48.244;9.188;2023-07-20T00:58:22;18.90;55.10
75451;DHT22;64029;48.244;9.188;2023-07-20T01:00:49;18.80;55.10
75451;DHT22;64029;48.244;9.188;2023-07-20T01:03:16;18.80;55.10
75451;DHT22;64029;48.244;9.188;2023-07-20T01:05:50;18.80;55.10
75451;DHT22;64029;48.244;9.188;2023-07-20T01:08:26;18.70;55.10
75451;DHT22;64029;48.244;9.188;2023-07-20T01:11:09;18.70;55.00
75451;DHT22;64029;48.244;9.188;2023-07-20T01:13:40;18.70;55.00
75451;DHT22;64029;48.244;9.188;2023-07-20T01:16:07;18.60;55.10
75451;DHT22;64029;48.244;9.188;2023-07-20T01:18:33;18.60;55.00
75451;DHT22;64029;48.244;9.188;2023-07-20T01:21:06;18.50;54.90
75451;DHT22;64029;48.244;9.188;2023-07-20T01:24:00;18.50;55.10
75451;DHT22;64029;48.244;9.188;2023-07-20T01:30:01;18.40;55.00
75451;DHT22;64029;48.244;9.188;2023-07-20T01:32:33;18.30;55.10
75451;DHT22;64029;48.244;9.188;2023-07-20T01:35:02;18.30;55.30
75451;DHT22;64029;48.244;9.188;2023-07-20T01:37:31;18.20;55.30
75451;DHT22;64029;48.244;9.188;2023-07-20T01:39:58;18.20;55.30
75451;DHT22;64029;48.244;9.188;2023-07-20T01:42:26;18.20;55.30
75451;DHT22;64029;48.244;9.188;2023-07-20T01:44:55;18.20;55.40
75451;DHT22;64029;48.244;9.188;2023-07-20T01:47:22;18.10;55.50
75451;DHT22;64029;48.244;9.188;2023-07-20T01:49:50;18.00;55.40
75451;DHT22;64029;48.244;9.188;2023-07-20T01:52:17;18.00;55.50
75451;DHT22;64029;48.244;9.188;2023-07-20T01:54:44;18.00;55.80
75451;DHT22;64029;48.244;9.188;2023-07-20T01:57:11;17.90;56.00
75451;DHT22;64029;48.244;9.188;2023-07-20T01:59:38;17.80;56.10
75451;DHT22;64029;48.244;9.188;2023-07-20T02:02:05;17.80;56.10
75451;DHT22;64029;48.244;9.188;2023-07-20T02:04:32;17.70;56.30
75451;DHT22;64029;48.244;9.188;2023-07-20T02:07:00;17.70;56.70
75451;DHT22;64029;48.244;9.188;2023-07-20T02:09:27;17.60;57.20
75451;DHT22;64029;48.244;9.188;2023-07-20T02:11:53;17.60;57.40
75451;DHT22;64029;48.244;9.188;2023-07-20T02:14:20;17.50;57.60
75451;DHT22;64029;48.244;9.188;2023-07-20T02:16:48;17.40;57.80
75451;DHT22;64029;48.244;9.188;2023-07-20T02:19:17;17.40;57.90
75451;DHT22;64029;48.244;9.188;2023-07-20T02:21:44;17.30;58.20
75451;DHT22;64029;48.244;9.188;2023-07-20T02:24:13;17.30;58.20
75451;DHT22;64029;48.244;9.188;2023-07-20T02:26:40;17.20;58.30
75451;DHT22;64029;48.244;9.188;2023-07-20T02:29:07;17.20;58.60
75451;DHT22;64029;48.244;9.188;2023-07-20T02:31:33;17.10;58.70
75451;DHT22;64029;48.244;9.188;2023-07-20T02:34:03;17.00;58.90
75451;DHT22;64029;48.244;9.188;2023-07-20T02:36:29;17.00;58.90
75451;DHT22;64029;48.244;9.188;2023-07-20T02:38:58;16.90;59.00
75451;DHT22;64029;48.244;9.188;2023-07-20T02:41:27;16.90;59.10
75451;DHT22;64029;48.244;9.188;2023-07-20T02:43:54;16.80;59.40
75451;DHT22;64029;48.244;9.188;2023-07-20T02:46:21;16.70;59.50
75451;DHT22;64029;48.244;9.188;2023-07-20T02:48:48;16.70;59.60
75451;DHT22;64029;48.244;9.188;2023-07-20T02:51:15;16.60;59.60
75451;DHT22;64029;48.244;9.188;2023-07-20T02:53:42;16.60;59.50
75451;DHT22;64029;48.244;9.188;2023-07-20T02:56:09;16.60;59.50
75451;DHT22;64029;48.244;9.188;2023-07-20T02:58:40;16.60;59.50
75451;DHT22;64029;48.244;9.188;2023-07-20T03:01:08;16.50;59.70
75451;DHT22;64029;48.244;9.188;2023-07-20T03:03:36;16.40;60.80
75451;DHT22;64029;48.244;9.188;2023-07-20T03:06:04;16.30;60.20
75451;DHT22;64029;48.244;9.188;2023-07-20T03:08:31;16.20;60.20
75451;DHT22;64029;48.244;9.188;2023-07-20T03:10:58;16.20;60.30
75451;DHT22;64029;48.244;9.188;2023-07-20T03:13:25;16.20;60.60
75451;DHT22;64029;48.244;9.188;2023-07-20T03:15:53;16.10;60.60
75451;DHT22;64029;48.244;9.188;2023-07-20T03:18:20;16.10;60.60
75451;DHT22;64029;48.244;9.188;2023-07-20T03:20:47;15.90;60.80
75451;DHT22;64029;48.244;9.188;2023-07-20T03:23:14;15.90;61.20
75451;DHT22;64029;48.244;9.188;2023-07-20T03:25:42;15.80;61.00
75451;DHT22;64029;48.244;9.188;2023-07-20T03:28:08;15.80;60.90
75451;DHT22;64029;48.244;9.188;2023-07-20T03:30:35;15.70;61.10
75451;DHT22;64029;48.244;9.188;2023-07-20T03:33:04;15.70;61.40
75451;DHT22;64029;48.244;9.188;2023-07-20T03:35:31;15.60;61.40
75451;DHT22;64029;48.244;9.188;2023-07-20T03:37:57;15.50;61.50
75451;DHT22;64029;48.244;9.188;2023-07-20T03:40:24;15.50;61.90
75451;DHT22;64029;48.244;9.188;2023-07-20T03:42:51;15.50;61.90
75451;DHT22;64029;48.244;9.188;2023-07-20T03:45:18;15.40;61.80
75451;DHT22;64029;48.244;9.188;2023-07-20T03:47:45;15.30;61.90
75451;DHT22;64029;48.244;9.188;2023-07-20T03:50:15;15.30;61.80
75451;DHT22;64029;48.244;9.188;2023-07-20T03:52:42;15.30;61.80
75451;DHT22;64029;48.244;9.188;2023-07-20T03:55:09;15.30;62.20
75451;DHT22;64029;48.244;9.188;2023-07-20T03:57:36;15.20;62.30
75451;DHT22;64029;48.244;9.188;2023-07-20T04:00:04;15.10;63.10
75451;DHT22;64029;48.244;9.188;2023-07-20T04:02:33;15.10;62.80
75451;DHT22;64029;48.244;9.188;2023-07-20T04:05:00;15.00;62.60
75451;DHT22;64029;48.244;9.188;2023-07-20T04:07:28;15.00;62.80
75451;DHT22;64029;48.244;9.188;2023-07-20T04:09:55;15.00;62.80
75451;DHT22;64029;48.244;9.188;2023-07-20T04:12:22;15.00;62.80
75451;DHT22;64029;48.244;9.188;2023-07-20T04:14:49;15.00;62.90
75451;DHT22;64029;48.244;9.188;2023-07-20T04:17:16;14.90;62.80
75451;DHT22;64029;48.244;9.188;2023-07-20T04:19:43;15.00;63.00
75451;DHT22;64029;48.244;9.188;2023-07-20T04:22:10;14.90;63.20
75451;DHT22;64029;48.244;9.188;2023-07-20T04:24:38;14.90;63.40
75451;DHT22;64029;48.244;9.188;2023-07-20T04:27:05;14.80;63.60
75451;DHT22;64029;48.244;9.188;2023-07-20T04:29:32;14.80;63.40
75451;DHT22;64029;48.244;9.188;2023-07-20T04:31:59;14.80;63.10
75451;DHT22;64029;48.244;9.188;2023-07-20T04:34:26;14.80;63.70
75451;DHT22;64029;48.244;9.188;2023-07-20T04:36:53;14.70;64.80
75451;DHT22;64029;48.244;9.188;2023-07-20T04:39:19;14.70;65.20
75451;DHT22;64029;48.244;9.188;2023-07-20T04:41:48;14.70;65.70
75451;DHT22;64029;48.244;9.188;2023-07-20T04:44:15;14.70;65.40
75451;DHT22;64029;48.244;9.188;2023-07-20T04:46:42;14.70;64.50
75451;DHT22;64029;48.244;9.188;2023-07-20T04:49:08;14.70;64.60
75451;DHT22;64029;48.244;9.188;2023-07-20T04:51:38;14.70;64.60
75451;DHT22;64029;48.244;9.188;2023-07-20T04:54:05;14.60;64.90
75451;DHT22;64029;48.244;9.188;2023-07-20T04:56:32;14.70;65.10
75451;DHT22;64029;48.244;9.188;2023-07-20T04:59:00;14.70;64.60
75451;DHT22;64029;48.244;9.188;2023-07-20T05:01:27;14.70;65.30
75451;DHT22;64029;48.244;9.188;2023-07-20T05:03:53;14.70;65.80
75451;DHT22;64029;48.244;9.188;2023-07-20T05:06:22;14.70;65.70
75451;DHT22;64029;48.244;9.188;2023-07-20T05:08:49;14.70;64.80
75451;DHT22;64029;48.244;9.188;2023-07-20T05:11:16;14.80;64.90
75451;DHT22;64029;48.244;9.188;2023-07-20T05:13:43;14.90;64.40
75451;DHT22;64029;48.244;9.188;2023-07-20T05:16:11;14.90;64.10
75451;DHT22;64029;48.244;9.188;2023-07-20T05:18:38;15.00;63.90
75451;DHT22;64029;48.244;9.188;2023-07-20T05:21:05;15.00;64.00
75451;DHT22;64029;48.244;9.188;2023-07-20T05:23:33;15.10;64.20
75451;DHT22;64029;48.244;9.188;2023-07-20T05:26:00;15.10;64.60
75451;DHT22;64029;48.244;9.188;2023-07-20T05:28:27;15.20;64.10
75451;DHT22;64029;48.244;9.188;2023-07-20T05:30:54;15.20;63.70
75451;DHT22;64029;48.244;9.188;2023-07-20T05:33:22;15.20;64.20
75451;DHT22;64029;48.244;9.188;2023-07-20T05:35:49;15.20;63.70
75451;DHT22;64029;48.244;9.188;2023-07-20T05:38:16;15.30;63.90
75451;DHT22;64029;48.244;9.188;2023-07-20T05:40:44;15.40;63.70
75451;DHT22;64029;48.244;9.188;2023-07-20T05:43:12;15.40;63.60
75451;DHT22;64029;48.244;9.188;2023-07-20T05:45:41;15.50;64.20
75451;DHT22;64029;48.244;9.188;2023-07-20T05:48:11;15.50;63.60
75451;DHT22;64029;48.244;9.188;2023-07-20T05:50:42;15.60;64.10
75451;DHT22;64029;48.244;9.188;2023-07-20T05:53:09;15.60;63.60
75451;DHT22;64029;48.244;9.188;2023-07-20T05:55:36;15.70;64.00
75451;DHT22;64029;48.244;9.188;2023-07-20T05:58:03;15.80;63.20
75451;DHT22;64029;48.244;9.188;2023-07-20T06:00:30;15.80;62.60
75451;DHT22;64029;48.244;9.188;2023-07-20T06:02:57;15.90;63.30
75451;DHT22;64029;48.244;9.188;2023-07-20T06:05:24;16.00;62.90
75451;DHT22;64029;48.244;9.188;2023-07-20T06:07:52;16.00;62.50
75451;DHT22;64029;48.244;9.188;2023-07-20T06:10:22;16.10;62.30
75451;DHT22;64029;48.244;9.188;2023-07-20T06:12:51;16.10;63.10
75451;DHT22;64029;48.244;9.188;2023-07-20T06:15:25;16.20;63.40
75451;DHT22;64029;48.244;9.188;2023-07-20T06:17:54;16.20;63.40
75451;DHT22;64029;48.244;9.188;2023-07-20T06:20:21;16.20;63.60
75451;DHT22;64029;48.244;9.188;2023-07-20T06:22:48;16.30;63.60
75451;DHT22;64029;48.244;9.188;2023-07-20T06:25:16;16.40;63.90
75451;DHT22;64029;48.244;9.188;2023-07-20T06:27:43;16.40;63.80
75451;DHT22;64029;48.244;9.188;2023-07-20T06:30:11;16.40;64.60
75451;DHT22;64029;48.244;9.188;2023-07-20T06:32:38;16.60;64.50
75451;DHT22;64029;48.244;9.188;2023-07-20T06:35:06;16.80;63.90
75451;DHT22;64029;48.244;9.188;2023-07-20T06:37:34;16.90;63.30
75451;DHT22;64029;48.244;9.188;2023-07-20T06:40:01;17.00;63.60
75451;DHT22;64029;48.244;9.188;2023-07-20T06:42:31;17.00;62.90
75451;DHT22;64029;48.244;9.188;2023-07-20T06:44:58;17.00;62.80
75451;DHT22;64029;48.244;9.188;2023-07-20T06:47:25;17.10;63.20
75451;DHT22;64029;48.244;9.188;2023-07-20T06:49:52;17.20;63.10
75451;DHT22;64029;48.244;9.188;2023-07-20T06:52:19;17.30;63.00
75451;DHT22;64029;48.244;9.188;2023-07-20T06:54:46;17.40;62.70
75451;DHT22;64029;48.244;9.188;2023-07-20T06:57:12;17.60;62.90
75451;DHT22;64029;48.244;9.188;2023-07-20T06:59:41;17.70;62.70
75451;DHT22;64029;48.244;9.188;2023-07-20T07:02:07;17.80;62.90
75451;DHT22;64029;48.244;9.188;2023-07-20T07:04:34;17.90;62.50
75451;DHT22;64029;48.244;9.188;2023-07-20T07:07:02;18.10;62.30
75451;DHT22;64029;48.244;9.188;2023-07-20T07:09:29;18.30;62.40
75451;DHT22;64029;48.244;9.188;2023-07-20T07:11:59;18.50;61.80
75451;DHT22;64029;48.244;9.188;2023-07-20T07:14:26;18.70;61.30
75451;DHT22;64029;48.244;9.188;2023-07-20T07:16:54;18.90;61.20
75451;DHT22;64029;48.244;9.188;2023-07-20T07:19:21;19.00;61.20
75451;DHT22;64029;48.244;9.188;2023-07-20T07:21:48;19.20;60.90
75451;DHT22;64029;48.244;9.188;2023-07-20T07:24:15;19.40;59.90
75451;DHT22;64029;48.244;9.188;2023-07-20T07:26:44;19.60;60.70
75451;DHT22;64029;48.244;9.188;2023-07-20T07:29:11;19.80;60.10
75451;DHT22;64029;48.244;9.188;2023-07-20T07:31:38;19.90;59.60
75451;DHT22;64029;48.244;9.188;2023-07-20T07:34:06;20.10;59.40
75451;DHT22;64029;48.244;9.188;2023-07-20T07:36:33;20.20;59.50
75451;DHT22;64029;48.244;9.188;2023-07-20T07:39:00;20.30;59.30
75451;DHT22;64029;48.244;9.188;2023-07-20T07:41:27;20.50;59.10
75451;DHT22;64029;48.244;9.188;2023-07-20T07:43:54;20.70;59.40
75451;DHT22;64029;48.244;9.188;2023-07-20T07:46:20;20.70;58.00
75451;DHT22;64029;48.244;9.188;2023-07-20T07:48:50;20.90;58.20
75451;DHT22;64029;48.244;9.188;2023-07-20T07:51:19;21.00;57.10
75451;DHT22;64029;48.244;9.188;2023-07-20T07:53:48;21.00;57.00
75451;DHT22;64029;48.244;9.188;2023-07-20T07:56:15;21.00;56.70
75451;DHT22;64029;48.244;9.188;2023-07-20T07:58:43;21.10;56.90
75451;DHT22;64029;48.244;9.188;2023-07-20T08:01:09;21.30;56.80
75451;DHT22;64029;48.244;9.188;2023-07-20T08:03:36;21.40;57.00
75451;DHT22;64029;48.244;9.188;2023-07-20T08:06:03;21.50;56.40
75451;DHT22;64029;48.244;9.188;2023-07-20T08:08:32;21.60;55.70
75451;DHT22;64029;48.244;9.188;2023-07-20T08:10:59;21.60;55.70
75451;DHT22;64029;48.244;9.188;2023-07-20T08:13:26;21.70;55.50
75451;DHT22;64029;48.244;9.188;2023-07-20T08:15:53;21.80;55.00
75451;DHT22;64029;48.244;9.188;2023-07-20T08:18:20;21.90;54.90
75451;DHT22;64029;48.244;9.188;2023-07-20T08:20:47;22.00;54.90
75451;DHT22;64029;48.244;9.188;2023-07-20T08:23:15;22.00;54.30
75451;DHT22;64029;48.244;9.188;2023-07-20T08:25:43;22.20;54.60
75451;DHT22;64029;48.244;9.188;2023-07-20T08:28:10;22.20;52.90
75451;DHT22;64029;48.244;9.188;2023-07-20T08:30:41;22.20;52.80
75451;DHT22;64029;48.244;9.188;2023-07-20T08:33:09;22.20;51.60
75451;DHT22;64029;48.244;9.188;2023-07-20T08:35:37;22.20;51.30
75451;DHT22;64029;48.244;9.188;2023-07-20T08:38:03;22.30;51.50
75451;DHT22;64029;48.244;9.188;2023-07-20T08:40:31;22.40;51.60
75451;DHT22;64029;48.244;9.188;2023-07-20T08:43:00;22.40;51.40
75451;DHT22;64029;48.244;9.188;2023-07-20T08:45:27;22.50;50.90
75451;DHT22;64029;48.244;9.188;2023-07-20T08:47:56;22.50;50.60
75451;DHT22;64029;48.244;9.188;2023-07-20T08:50:25;22.50;50.60
75451;DHT22;64029;48.244;9.188;2023-07-20T08:52:57;22.40;50.10
75451;DHT22;64029;48.244;9.188;2023-07-20T08:55:25;22.50;50.60
75451;DHT22;64029;48.244;9.188;2023-07-20T08:57:54;22.60;50.60
75451;DHT22;64029;48.244;9.188;2023-07-20T09:00:24;22.60;50.70
75451;DHT22;64029;48.244;9.188;2023-07-20T09:02:52;22.60;50.70
75451;DHT22;64029;48.244;9.188;2023-07-20T09:05:19;22.60;50.50
75451;DHT22;64029;48.244;9.188;2023-07-20T09:07:46;22.60;50.60
75451;DHT22;64029;48.244;9.188;2023-07-20T09:10:13;22.60;50.40
75451;DHT22;64029;48.244;9.188;2023-07-20T09:12:41;22.60;50.60
75451;DHT22;64029;48.244;9.188;2023-07-20T09:15:10;22.60;50.80
75451;DHT22;64029;48.244;9.188;2023-07-20T09:17:38;22.70;51.40
75451;DHT22;64029;48.244;9.188;2023-07-20T09:20:07;22.70;50.70
75451;DHT22;64029;48.244;9.188;2023-07-20T09:22:36;22.70;50.40
75451;DHT22;64029;48.244;9.188;2023-07-20T09:25:06;22.70;51.30
75451;DHT22;64029;48.244;9.188;2023-07-20T09:27:37;22.70;50.50
75451;DHT22;64029;48.244;9.188;2023-07-20T09:30:05;22.70;50.50
75451;DHT22;64029;48.244;9.188;2023-07-20T09:32:40;22.70;50.60
75451;DHT22;64029;48.244;9.188;2023-07-20T09:35:13;22.70;51.10
75451;DHT22;64029;48.244;9.188;2023-07-20T09:37:42;22.80;51.00
75451;DHT22;64029;48.244;9.188;2023-07-20T09:40:15;22.70;50.70
75451;DHT22;64029;48.244;9.188;2023-07-20T09:42:42;22.80;50.80
75451;DHT22;64029;48.244;9.188;2023-07-20T09:45:10;22.80;51.30
75451;DHT22;64029;48.244;9.188;2023-07-20T09:47:37;22.80;50.50
75451;DHT22;64029;48.244;9.188;2023-07-20T09:50:08;22.80;50.60
75451;DHT22;64029;48.244;9.188;2023-07-20T09:52:38;22.80;50.80
75451;DHT22;64029;48.244;9.188;2023-07-20T09:55:07;22.80;51.20
75451;DHT22;64029;48.244;9.188;2023-07-20T09:57:34;22.80;51.20
75451;DHT22;64029;48.244;9.188;2023-07-20T10:00:02;22.80;50.90
75451;DHT22;64029;48.244;9.188;2023-07-20T10:02:33;22.80;51.00
75451;DHT22;64029;48.244;9.188;2023-07-20T10:05:03;22.70;50.30
75451;DHT22;64029;48.244;9.188;2023-07-20T10:07:33;22.70;50.40
75451;DHT22;64029;48.244;9.188;2023-07-20T10:10:03;22.70;50.70
75451;DHT22;64029;48.244;9.188;2023-07-20T10:12:31;22.70;50.90
75451;DHT22;64029;48.244;9.188;2023-07-20T10:15:07;22.70;49.90
75451;DHT22;64029;48.244;9.188;2023-07-20T10:17:53;22.60;49.30
75451;DHT22;64029;48.244;9.188;2023-07-20T10:20:21;22.60;49.40
75451;DHT22;64029;48.244;9.188;2023-07-20T10:22:53;22.70;50.60
75451;DHT22;64029;48.244;9.188;2023-07-20T10:25:22;22.70;50.00
75451;DHT22;64029;48.244;9.188;2023-07-20T10:27:50;22.60;50.10
75451;DHT22;64029;48.244;9.188;2023-07-20T10:30:20;22.70;50.60
75451;DHT22;64029;48.244;9.188;2023-07-20T10:32:47;22.60;50.10
75451;DHT22;64029;48.244;9.188;2023-07-20T10:35:16;22.70;50.50
75451;DHT22;64029;48.244;9.188;2023-07-20T10:37:52;22.60;49.70
75451;DHT22;64029;48.244;9.188;2023-07-20T10:40:40;22.60;49.80
75451;DHT22;64029;48.244;9.188;2023-07-20T10:43:08;22.60;49.40
75451;DHT22;64029;48.244;9.188;2023-07-20T10:45:47;22.60;50.10
75451;DHT22;64029;48.244;9.188;2023-07-20T10:48:16;22.60;50.10
75451;DHT22;64029;48.244;9.188;2023-07-20T10:50:45;22.60;49.90
75451;DHT22;64029;48.244;9.188;2023-07-20T10:53:16;22.60;49.80
75451;DHT22;64029;48.244;9.188;2023-07-20T10:55:43;22.60;50.30
75451;DHT22;64029;48.244;9.188;2023-07-20T10:58:12;22.70;50.40
75451;DHT22;64029;48.244;9.188;2023-07-20T11:01:00;22.70;49.20
75451;DHT22;64029;48.244;9.188;2023-07-20T11:03:29;22.60;49.30
75451;DHT22;64029;48.244;9.188;2023-07-20T11:05:57;22.60;48.90
75451;DHT22;64029;48.244;9.188;2023-07-20T11:08:41;22.60;50.20
75451;DHT22;64029;48.244;9.188;2023-07-20T11:11:21;22.70;50.20
75451;DHT22;64029;48.244;9.188;2023-07-20T11:13:56;22.80;50.50
75451;DHT22;64029;48.244;9.188;2023-07-20T11:16:43;22.80;50.30
75451;DHT22;64029;48.244;9.188;2023-07-20T11:19:17;22.80;49.90
75451;DHT22;64029;48.244;9.188;2023-07-20T11:21:45;22.70;49.20
75451;DHT22;64029;48.244;9.188;2023-07-20T11:24:14;22.70;49.80
75451;DHT22;64029;48.244;9.188;2023-07-20T11:26:45;22.80;50.30
75451;DHT22;64029;48.244;9.188;2023-07-20T11:29:12;22.80;50.30
75451;DHT22;64029;48.244;9.188;2023-07-20T11:31:41;22.70;49.10
75451;DHT22;64029;48.244;9.188;2023-07-20T11:34:11;22.70;49.70
75451;DHT22;64029;48.244;9.188;2023-07-20T11:36:39;22.80;50.30
75451;DHT22;64029;48.244;9.188;2023-07-20T11:39:07;22.80;50.00
75451;DHT22;64029;48.244;9.188;2023-07-20T11:41:36;22.70;49.20
75451;DHT22;64029;48.244;9.188;2023-07-20T11:44:03;22.80;49.80
75451;DHT22;64029;48.244;9.188;2023-07-20T11:46:31;22.80;49.90
75451;DHT22;64029;48.244;9.188;2023-07-20T11:49:02;22.80;49.30
75451;DHT22;64029;48.244;9.188;2023-07-20T11:51:32;22.80;49.50
75451;DHT22;64029;48.244;9.188;2023-07-20T11:54:01;22.70;48.80
75451;DHT22;64029;48.244;9.188;2023-07-20T11:56:28;22.70;49.10
75451;DHT22;64029;48.244;9.188;2023-07-20T11:58:58;22.70;48.90
75451;DHT22;64029;48.244;9.188;2023-07-20T12:01:26;22.60;48.60
75451;DHT22;64029;48.244;9.188;2023-07-20T12:03:55;22.70;49.50
75451;DHT22;64029;48.244;9.188;2023-07-20T12:06:23;22.70;49.30
75451;DHT22;64029;48.244;9.188;2023-07-20T12:08:55;22.70;49.50
75451;DHT22;64029;48.244;9.188;2023-07-20T12:11:33;22.70;49.10
75451;DHT22;64029;48.244;9.188;2023-07-20T12:14:04;22.80;49.40
75451;DHT22;64029;48.244;9.188;2023-07-20T12:16:31;22.70;48.80
75451;DHT22;64029;48.244;9.188;2023-07-20T12:19:01;22.70;48.90
75451;DHT22;64029;48.244;9.188;2023-07-20T12:21:30;22.70;48.90
75451;DHT22;64029;48.244;9.188;2023-07-20T12:23:58;22.70;48.70
75451;DHT22;64029;48.244;9.188;2023-07-20T12:26:26;22.70;49.40
75451;DHT22;64029;48.244;9.188;2023-07-20T12:28:53;22.70;48.80
75451;DHT22;64029;48.244;9.188;2023-07-20T12:31:21;22.70;48.50
75451;DHT22;64029;48.244;9.188;2023-07-20T12:33:49;22.70;49.20
75451;DHT22;64029;48.244;9.188;2023-07-20T12:36:17;22.80;49.00
75451;DHT22;64029;48.244;9.188;2023-07-20T12:38:44;22.70;48.90
75451;DHT22;64029;48.244;9.188;2023-07-20T12:41:12;22.70;48.10
75451;DHT22;64029;48.244;9.188;2023-07-20T12:43:43;22.70;48.20
75451;DHT22;64029;48.244;9.188;2023-07-20T12:46:11;22.70;48.40
75451;DHT22;64029;48.244;9.188;2023-07-20T12:48:41;22.70;49.10
75451;DHT22;64029;48.244;9.188;2023-07-20T12:51:09;22.80;49.30
75451;DHT22;64029;48.244;9.188;2023-07-20T12:53:37;22.90;49.00
75451;DHT22;64029;48.244;9.188;2023-07-20T12:56:05;22.80;48.10
75451;DHT22;64029;48.244;9.188;2023-07-20T12:58:32;22.80;48.80
75451;DHT22;64029;48.244;9.188;2023-07-20T13:01:02;22.90;49.40
75451;DHT22;64029;48.244;9.188;2023-07-20T13:03:29;22.90;49.10
75451;DHT22;64029;48.244;9.188;2023-07-20T13:06:00;22.90;48.40
75451;DHT22;64029;48.244;9.188;2023-07-20T13:08:27;22.90;48.50
75451;DHT22;64029;48.244;9.188;2023-07-20T13:10:55;22.90;48.80
75451;DHT22;64029;48.244;9.188;2023-07-20T13:13:22;22.90;48.70
75451;DHT22;64029;48.244;9.188;2023-07-20T13:15:52;22.90;48.30
75451;DHT22;64029;48.244;9.188;2023-07-20T13:18:25;22.90;48.10
75451;DHT22;64029;48.244;9.188;2023-07-20T13:20:52;22.90;48.50
75451;DHT22;64029;48.244;9.188;2023-07-20T13:23:21;22.90;47.80
75451;DHT22;64029;48.244;9.188;2023-07-20T13:25:49;22.90;48.00
75451;DHT22;64029;48.244;9.188;2023-07-20T13:28:18;23.00;48.70
75451;DHT22;64029;48.244;9.188;2023-07-20T13:30:45;22.90;48.10
75451;DHT22;64029;48.244;9.188;2023-07-20T13:33:13;22.90;47.20
75451;DHT22;64029;48.244;9.188;2023-07-20T13:35:40;23.00;48.60
75451;DHT22;64029;48.244;9.188;2023-07-20T13:38:07;23.00;48.20
75451;DHT22;64029;48.244;9.188;2023-07-20T13:40:35;23.00;48.60
75451;DHT22;64029;48.244;9.188;2023-07-20T13:43:02;23.00;48.20
75451;DHT22;64029;48.244;9.188;2023-07-20T13:45:29;23.10;48.90
75451;DHT22;64029;48.244;9.188;2023-07-20T13:47:56;23.10;48.30
75451;DHT22;64029;48.244;9.188;2023-07-20T13:50:23;23.10;48.50
75451;DHT22;64029;48.244;9.188;2023-07-20T13:52:50;23.10;48.40
75451;DHT22;64029;48.244;9.188;2023-07-20T13:55:18;23.10;48.60
75451;DHT22;64029;48.244;9.188;2023-07-20T13:57:46;23.10;48.50
75451;DHT22;64029;48.244;9.188;2023-07-20T14:00:14;23.20;48.90
75451;DHT22;64029;48.244;9.188;2023-07-20T14:02:41;23.20;48.90
75451;DHT22;64029;48.244;9.188;2023-07-20T14:05:08;23.20;48.60
75451;DHT22;64029;48.244;9.188;2023-07-20T14:07:35;23.20;48.00
75451;DHT22;64029;48.244;9.188;2023-07-20T14:10:03;23.20;48.10
75451;DHT22;64029;48.244;9.188;2023-07-20T14:12:30;23.20;48.30
75451;DHT22;64029;48.244;9.188;2023-07-20T14:14:58;23.20;48.30
75451;DHT22;64029;48.244;9.188;2023-07-20T14:17:25;23.20;48.40
75451;DHT22;64029;48.244;9.188;2023-07-20T14:19:53;23.20;48.20
75451;DHT22;64029;48.244;9.188;2023-07-20T14:22:20;23.20;48.10
75451;DHT22;64029;48.244;9.188;2023-07-20T14:24:47;23.20;48.20
75451;DHT22;64029;48.244;9.188;2023-07-20T14:27:14;23.30;48.70
75451;DHT22;64029;48.244;9.188;2023-07-20T14:29:41;23.30;47.90
75451;DHT22;64029;48.244;9.188;2023-07-20T14:32:10;23.30;48.40
75451;DHT22;64029;48.244;9.188;2023-07-20T14:34:37;23.40;47.90
75451;DHT22;64029;48.244;9.188;2023-07-20T14:37:04;23.40;48.30
75451;DHT22;64029;48.244;9.188;2023-07-20T14:39:31;23.40;48.30
75451;DHT22;64029;48.244;9.188;2023-07-20T14:41:58;23.40;48.20
75451;DHT22;64029;48.244;9.188;2023-07-20T14:44:25;23.40;48.10
75451;DHT22;64029;48.244;9.188;2023-07-20T14:46:52;23.40;47.80
75451;DHT22;64029;48.244;9.188;2023-07-20T14:49:20;23.40;48.30
75451;DHT22;64029;48.244;9.188;2023-07-20T14:51:47;23.40;47.80
75451;DHT22;64029;48.244;9.188;2023-07-20T14:54:15;23.40;47.90
75451;DHT22;64029;48.244;9.188;2023-07-20T14:56:49;23.40;48.20
75451;DHT22;64029;48.244;9.188;2023-07-20T14:59:18;23.40;47.00
75451;DHT22;64029;48.244;9.188;2023-07-20T15:01:45;23.40;47.30
75451;DHT22;64029;48.244;9.188;2023-07-20T15:04:12;23.50;47.80
75451;DHT22;64029;48.244;9.188;2023-07-20T15:06:41;23.50;48.10
75451;DHT22;64029;48.244;9.188;2023-07-20T15:09:08;23.50;47.60
75451;DHT22;64029;48.244;9.188;2023-07-20T15:11:36;23.50;47.40
75451;DHT22;64029;48.244;9.188;2023-07-20T15:14:03;23.50;47.70
75451;DHT22;64029;48.244;9.188;2023-07-20T15:16:30;23.50;47.90
75451;DHT22;64029;48.244;9.188;2023-07-20T15:18:57;23.40;46.80
75451;DHT22;64029;48.244;9.188;2023-07-20T15:21:23;23.40;47.40
75451;DHT22;64029;48.244;9.188;2023-07-20T15:23:57;23.40;47.30
75451;DHT22;64029;48.244;9.188;2023-07-20T15:26:24;23.30;46.90
75451;DHT22;64029;48.244;9.188;2023-07-20T15:28:51;23.30;46.70
75451;DHT22;64029;48.244;9.188;2023-07-20T15:31:18;23.40;47.80
75451;DHT22;64029;48.244;9.188;2023-07-20T15:33:45;23.30;47.30
75451;DHT22;64029;48.244;9.188;2023-07-20T15:36:12;23.30;47.20
75451;DHT22;64029;48.244;9.188;2023-07-20T15:38:39;23.30;47.20
75451;DHT22;64029;48.244;9.188;2023-07-20T15:41:07;23.30;47.20